Time;durP1;ratioP1;P1;durP2;ratioP2;P2;SDS_P1;SDS_P2;PMS_P1;PMS_P2;Temp;Humidity;BMP_temperature;BMP_pressure;BME280_temperature;BME280_humidity;BME280_pressure;Samples;Min_cycle;Max_cycle;Signal;HPM_P1;HPM_P2
2021/04/19 00:02:11;;;;;;;25.42;18.08;;;7.20;99.90;;;;;;4917835;29;20429;-67
2021/04/19 00:04:38;;;;;;;25.17;17.77;;;7.20;99.90;;;;;;4915075;29;20433;-68
2021/04/19 00:07:07;;;;;;;22.60;16.35;;;7.30;99.90;;;;;;4916500;29;20417;-68
2021/04/19 00:09:36;;;;;;;26.63;17.15;;;7.40;99.90;;;;;;4916947;29;20413;-70
2021/04/19 00:12:05;;;;;;;25.23;17.25;;;7.40;99.90;;;;;;4916841;29;20428;-67
2021/04/19 00:14:33;;;;;;;26.80;19.10;;;7.30;99.90;;;;;;4916997;29;20428;-68
2021/04/19 00:17:00;;;;;;;25.05;18.30;;;7.30;99.90;;;;;;4915683;29;20441;-67
2021/04/19 00:19:29;;;;;;;24.73;18.20;;;7.30;99.90;;;;;;4931119;29;20409;-67
2021/04/19 00:21:56;;;;;;;28.10;19.85;;;7.30;99.90;;;;;;4916991;29;20412;-69
2021/04/19 00:24:24;;;;;;;26.77;18.65;;;7.30;99.90;;;;;;4917504;29;20418;-68
2021/04/19 00:26:53;;;;;;;25.95;18.83;;;7.30;99.90;;;;;;4925850;29;20413;-68
2021/04/19 00:29:20;;;;;;;27.35;19.63;;;7.30;99.90;;;;;;4933535;29;20447;-67
2021/04/19 00:31:48;;;;;;;27.85;19.95;;;7.20;99.90;;;;;;4933248;29;20436;-68
2021/04/19 00:34:16;;;;;;;23.20;18.40;;;7.20;99.90;;;;;;4941546;29;20453;-67
2021/04/19 00:36:43;;;;;;;23.63;18.02;;;7.30;99.90;;;;;;4916976;29;20420;-67
2021/04/19 00:39:11;;;;;;;22.65;16.27;;;7.40;99.90;;;;;;4930817;29;20460;-68
2021/04/19 00:41:39;;;;;;;26.10;18.30;;;7.60;99.90;;;;;;4916418;29;20437;-68
2021/04/19 00:44:08;;;;;;;24.47;18.10;;;7.50;99.90;;;;;;4916116;29;20484;-68
2021/04/19 00:46:36;;;;;;;25.52;18.08;;;7.50;99.90;;;;;;4916068;29;20429;-67
2021/04/19 00:49:04;;;;;;;27.20;19.90;;;7.30;99.90;;;;;;4916610;29;20845;-67
2021/04/19 00:51:32;;;;;;;25.40;18.48;;;7.20;99.90;;;;;;4916189;29;20488;-68
2021/04/19 00:54:25;;;;;;;29.02;18.85;;;7.10;99.90;;;;;;4930297;29;20948;-68
2021/04/19 00:56:53;;;;;;;25.63;18.50;;;7.10;99.90;;;;;;4930747;29;20938;-67
2021/04/19 00:59:22;;;;;;;27.88;19.13;;;7.10;99.90;;;;;;4915803;29;20996;-67
2021/04/19 01:01:50;;;;;;;27.85;19.40;;;7.10;99.90;;;;;;4930105;29;20429;-70
2021/04/19 01:04:19;;;;;;;28.40;20.40;;;7.00;99.90;;;;;;4915350;29;20844;-68
2021/04/19 01:06:49;;;;;;;28.17;20.27;;;7.00;99.90;;;;;;4914822;29;20414;-68
2021/04/19 01:09:17;;;;;;;24.88;19.50;;;7.00;99.90;;;;;;4916835;29;20424;-68
2021/04/19 01:11:45;;;;;;;24.08;17.63;;;7.10;99.90;;;;;;4934633;29;20413;-68
2021/04/19 01:14:14;;;;;;;24.73;19.13;;;7.10;99.90;;;;;;4934366;29;20459;-68
2021/04/19 01:16:43;;;;;;;26.13;19.73;;;7.10;99.90;;;;;;4934377;29;20420;-70
2021/04/19 01:19:11;;;;;;;26.08;20.15;;;7.10;99.90;;;;;;4920060;29;20436;-68
2021/04/19 01:21:41;;;;;;;29.40;20.52;;;7.00;99.90;;;;;;4918024;29;20421;-68
2021/04/19 01:24:10;;;;;;;27.45;20.85;;;7.00;99.90;;;;;;4933774;29;20424;-67
2021/04/19 01:26:38;;;;;;;32.17;22.30;;;7.10;99.90;;;;;;4918939;29;20825;-70
2021/04/19 01:29:07;;;;;;;31.52;22.58;;;7.00;99.90;;;;;;4933378;29;20480;-70
2021/04/19 01:31:34;;;;;;;28.55;21.63;;;7.00;99.90;;;;;;4933728;29;20417;-70
2021/04/19 01:34:09;;;;;;;32.47;22.67;;;6.90;99.90;;;;;;4918629;29;20413;-68
2021/04/19 01:36:38;;;;;;;32.45;23.17;;;6.90;99.90;;;;;;4933109;29;20417;-68
2021/04/19 01:39:16;;;;;;;37.40;23.80;;;6.90;99.90;;;;;;4919006;29;20746;-67
2021/04/19 01:41:45;;;;;;;33.60;22.77;;;6.90;99.90;;;;;;4918715;29;20425;-68
2021/04/19 01:44:13;;;;;;;31.20;22.95;;;6.80;99.90;;;;;;4932983;29;20829;-67
2021/04/19 01:46:41;;;;;;;33.58;22.92;;;6.80;99.90;;;;;;4917461;29;20425;-69
2021/04/19 01:49:15;;;;;;;31.38;21.73;;;6.80;99.90;;;;;;4918644;29;20696;-67
2021/04/19 01:51:44;;;;;;;34.40;23.83;;;6.80;99.90;;;;;;4933255;29;21039;-68
2021/04/19 01:54:20;;;;;;;30.02;21.67;;;6.80;99.90;;;;;;4932979;29;20468;-67
2021/04/19 01:56:48;;;;;;;33.37;22.70;;;6.80;99.90;;;;;;4917483;29;20422;-67
2021/04/19 01:59:18;;;;;;;35.37;23.80;;;6.80;99.90;;;;;;4932972;29;20712;-67
2021/04/19 02:01:57;;;;;;;34.80;23.85;;;6.80;99.90;;;;;;4918299;29;20424;-68
2021/04/19 02:04:58;;;;;;;34.65;23.13;;;6.80;99.90;;;;;;4918905;29;20532;-68
2021/04/19 02:07:33;;;;;;;36.70;23.10;;;6.80;99.90;;;;;;4918944;29;20421;-68
2021/04/19 02:10:07;;;;;;;34.45;22.42;;;6.80;99.90;;;;;;4933817;29;20472;-68
2021/04/19 02:12:44;;;;;;;31.13;20.92;;;6.80;99.90;;;;;;4919200;29;20814;-68
2021/04/19 02:15:17;;;;;;;31.75;20.98;;;6.80;99.90;;;;;;4934769;29;20431;-68
2021/04/19 02:17:58;;;;;;;30.10;20.35;;;6.80;99.90;;;;;;4917507;29;20425;-70
2021/04/19 02:20:39;;;;;;;28.98;19.95;;;6.80;99.90;;;;;;4917314;29;20413;-68
2021/04/19 02:23:14;;;;;;;30.63;20.42;;;6.80;99.90;;;;;;4916656;29;20436;-68
2021/04/19 02:26:13;;;;;;;32.83;21.17;;;6.80;99.90;;;;;;4918907;29;20460;-68
2021/04/19 02:28:47;;;;;;;27.60;19.35;;;6.90;99.90;;;;;;4919205;29;20512;-68
2021/04/19 02:31:22;;;;;;;34.80;21.85;;;6.80;99.90;;;;;;4919867;29;20413;-70
2021/04/19 02:33:55;;;;;;;32.10;21.10;;;6.80;99.90;;;;;;4916739;29;20418;-68
2021/04/19 02:36:24;;;;;;;31.85;21.33;;;6.80;99.90;;;;;;4932140;29;20424;-68
2021/04/19 02:39:00;;;;;;;28.90;21.20;;;6.80;99.90;;;;;;4958601;23;20931;-71
2021/04/19 02:41:29;;;;;;;29.90;20.92;;;6.90;99.90;;;;;;4960352;28;20492;-68
2021/04/19 02:43:59;;;;;;;30.20;18.00;;;6.80;99.90;;;;;;4977691;28;20435;-68
2021/04/19 02:46:52;;;;;;;28.42;18.80;;;7.00;99.90;;;;;;4976622;28;20890;-67
2021/04/19 02:49:23;;;;;;;25.52;18.35;;;7.10;99.90;;;;;;4974722;28;20420;-73
2021/04/19 02:51:52;;;;;;;27.53;19.20;;;6.90;99.90;;;;;;4976399;28;20471;-69
2021/04/19 02:54:22;;;;;;;27.92;19.20;;;7.00;99.90;;;;;;4991580;28;20907;-72
2021/04/19 02:56:52;;;;;;;30.80;20.60;;;6.90;99.90;;;;;;4977155;28;20435;-68
2021/04/19 02:59:23;;;;;;;33.30;21.40;;;6.90;99.90;;;;;;4975423;28;20424;-69
2021/04/19 03:02:00;;;;;;;33.45;21.05;;;6.80;99.90;;;;;;4977813;28;20414;-68
2021/04/19 03:04:36;;;;;;;31.05;22.30;;;6.80;99.90;;;;;;4976966;28;20787;-69
2021/04/19 03:07:15;;;;;;;27.63;20.87;;;6.80;99.90;;;;;;4976493;28;20440;-68
2021/04/19 03:09:52;;;;;;;34.95;21.73;;;6.70;99.90;;;;;;4975647;28;20464;-67
2021/04/19 03:12:25;;;;;;;31.83;21.13;;;6.70;99.90;;;;;;4975893;28;20467;-68
2021/04/19 03:14:59;;;;;;;29.50;20.60;;;6.70;99.90;;;;;;4977778;28;20515;-67
2021/04/19 03:17:31;;;;;;;29.50;19.60;;;6.70;99.90;;;;;;4978647;28;20439;-69
2021/04/19 03:20:12;;;;;;;29.95;19.30;;;6.70;99.90;;;;;;4989357;28;20440;-67
2021/04/19 03:22:57;;;;;;;32.15;21.42;;;6.70;99.90;;;;;;4986527;28;20444;-68
2021/04/19 03:25:31;;;;;;;32.40;21.67;;;6.60;99.90;;;;;;4974867;28;20807;-69
2021/04/19 03:28:01;;;;;;;34.42;22.90;;;6.70;99.90;;;;;;4982309;28;20452;-68
2021/04/19 03:30:31;;;;;;;32.30;21.33;;;6.60;99.90;;;;;;4978479;28;20954;-70
2021/04/19 03:33:05;;;;;;;34.70;22.87;;;6.60;99.90;;;;;;4977259;28;20412;-70
2021/04/19 03:35:39;;;;;;;30.08;20.77;;;6.60;99.90;;;;;;4974474;28;20915;-69
2021/04/19 03:38:37;;;;;;;30.58;20.58;;;6.60;99.90;;;;;;4977175;28;20919;-69
2021/04/19 03:41:09;;;;;;;32.25;21.90;;;6.60;99.90;;;;;;4977138;28;20404;-69
2021/04/19 03:43:46;;;;;;;35.33;21.83;;;6.60;99.90;;;;;;4978783;28;20404;-69
2021/04/19 03:46:20;;;;;;;34.20;22.70;;;6.60;99.90;;;;;;4979211;28;20808;-69
2021/04/19 03:49:04;;;;;;;35.13;22.42;;;6.60;99.90;;;;;;4976864;28;20424;-67
2021/04/19 03:51:45;;;;;;;30.92;20.65;;;6.60;99.90;;;;;;4977582;28;20755;-69
2021/04/19 03:57:11;;;;;;;34.17;22.40;;;6.60;99.90;;;;;;4978100;28;20420;-69
2021/04/19 03:59:44;;;;;;;32.53;22.73;;;6.60;99.90;;;;;;4961076;28;20418;-69
2021/04/19 04:02:21;;;;;;;35.72;23.88;;;6.60;99.90;;;;;;4977544;28;20408;-68
2021/04/19 04:05:08;;;;;;;34.53;22.75;;;6.60;99.90;;;;;;4977852;28;20416;-70
2021/04/19 04:07:57;;;;;;;36.05;23.88;;;6.60;99.90;;;;;;4978113;28;20900;-69
2021/04/19 04:10:25;;;;;;;37.13;23.42;;;6.60;99.90;;;;;;4961514;28;20415;-72
2021/04/19 04:12:55;;;;;;;31.63;21.53;;;6.60;99.90;;;;;;4978847;28;20525;-69
2021/04/19 04:15:25;;;;;;;31.92;21.90;;;6.60;99.90;;;;;;4977857;28;20412;-68
2021/04/19 04:18:19;;;;;;;31.63;22.25;;;6.60;99.90;;;;;;4978005;28;20903;-69
2021/04/19 04:20:49;;;;;;;32.80;21.95;;;6.60;99.90;;;;;;4978239;28;20420;-69
2021/04/19 04:23:28;;;;;;;34.38;22.52;;;6.60;99.90;;;;;;4976036;28;20483;-69
2021/04/19 04:26:00;;;;;;;30.88;20.90;;;6.60;99.90;;;;;;4987465;28;20442;-69
2021/04/19 04:28:32;;;;;;;30.48;21.63;;;6.60;99.90;;;;;;4985957;28;20419;-72
2021/04/19 04:31:05;;;;;;;33.93;21.20;;;6.50;99.90;;;;;;4975740;28;20506;-69
2021/04/19 04:33:36;;;;;;;27.98;21.63;;;6.50;99.90;;;;;;4973928;28;20434;-70
2021/04/19 04:36:10;;;;;;;35.83;21.23;;;6.50;99.90;;;;;;4960045;28;20452;-69
2021/04/19 04:39:04;;;;;;;32.03;21.80;;;6.50;99.90;;;;;;4977434;28;20443;-69
2021/04/19 04:41:50;;;;;;;31.20;21.13;;;6.50;99.90;;;;;;4977052;28;20812;-69
2021/04/19 04:44:24;;;;;;;30.70;20.40;;;6.50;99.90;;;;;;4977010;28;20474;-69
2021/04/19 04:47:08;;;;;;;31.02;21.13;;;6.40;99.90;;;;;;4978365;28;20478;-68
2021/04/19 04:49:40;;;;;;;28.65;21.38;;;6.50;99.90;;;;;;4978600;28;20420;-69
2021/04/19 04:52:10;;;;;;;31.38;21.17;;;6.50;99.90;;;;;;4977901;28;20423;-69
2021/04/19 04:54:39;;;;;;;31.50;21.80;;;6.50;99.90;;;;;;4977780;28;20852;-69
2021/04/19 04:57:07;;;;;;;28.02;19.70;;;6.50;99.90;;;;;;4976981;28;20416;-67
2021/04/19 04:59:36;;;;;;;24.70;18.17;;;6.70;99.90;;;;;;4975311;28;20427;-69
2021/04/19 05:02:06;;;;;;;27.40;18.70;;;6.90;99.90;;;;;;4974171;28;20458;-67
2021/04/19 05:04:34;;;;;;;28.27;20.30;;;6.80;99.90;;;;;;4975342;28;20423;-67
2021/04/19 05:07:02;;;;;;;28.48;19.13;;;6.70;99.90;;;;;;4974807;28;20424;-67
2021/04/19 05:09:30;;;;;;;26.92;19.30;;;6.70;99.90;;;;;;4976520;28;20426;-69
2021/04/19 05:11:58;;;;;;;35.08;20.80;;;6.70;99.90;;;;;;4974390;28;20512;-69
2021/04/19 05:14:26;;;;;;;31.75;20.55;;;6.70;99.90;;;;;;4974845;28;20835;-68
2021/04/19 05:16:53;;;;;;;36.28;22.50;;;6.70;99.90;;;;;;4976981;28;20416;-68
2021/04/19 05:19:23;;;;;;;29.00;21.02;;;6.70;99.90;;;;;;4976133;28;20416;-70
2021/04/19 05:21:51;;;;;;;31.13;21.08;;;6.80;99.90;;;;;;4976121;28;20497;-68
2021/04/19 05:24:19;;;;;;;31.17;21.70;;;6.80;99.90;;;;;;4975655;28;21082;-69
2021/04/19 05:29:40;;;;;;;34.53;23.52;;;6.80;99.90;;;;;;4973757;28;20439;-69
2021/04/19 05:32:09;;;;;;;30.83;20.70;;;6.80;99.90;;;;;;4977772;28;20407;-68
2021/04/19 05:34:38;;;;;;;27.55;19.92;;;6.80;99.90;;;;;;4975503;28;20475;-69
2021/04/19 05:37:10;;;;;;;32.60;21.92;;;6.80;99.90;;;;;;4973794;28;20475;-68
2021/04/19 05:39:38;;;;;;;31.15;20.88;;;6.80;99.90;;;;;;4958087;28;20832;-69
2021/04/19 05:42:08;;;;;;;28.42;20.98;;;6.80;99.90;;;;;;4974917;28;20816;-71
2021/04/19 05:44:38;;;;;;;31.20;20.13;;;6.80;99.90;;;;;;4977646;28;20409;-67
2021/04/19 05:47:06;;;;;;;28.08;18.45;;;6.80;99.90;;;;;;4990044;28;20448;-70
2021/04/19 05:49:34;;;;;;;28.73;20.77;;;6.80;99.90;;;;;;4975015;28;20428;-69
2021/04/19 05:52:06;;;;;;;29.57;20.30;;;6.90;99.90;;;;;;4975460;28;20542;-69
2021/04/19 05:54:37;;;;;;;27.90;19.87;;;6.90;99.90;;;;;;4975635;28;20416;-69
2021/04/19 05:57:23;;;;;;;30.92;20.02;;;6.90;99.90;;;;;;4978589;28;20413;-69
2021/04/19 06:00:02;;;;;;;30.30;20.20;;;6.90;99.90;;;;;;4978616;28;20420;-69
2021/04/19 06:02:45;;;;;;;32.60;19.60;;;7.00;99.90;;;;;;4979305;28;20511;-69
2021/04/19 06:05:23;;;;;;;24.20;19.02;;;7.00;99.90;;;;;;4980719;28;20491;-69
2021/04/19 06:08:00;;;;;;;29.42;18.80;;;7.00;99.90;;;;;;4978932;28;20483;-69
2021/04/19 06:10:44;;;;;;;26.70;19.20;;;7.00;99.90;;;;;;4979545;28;20548;-69
2021/04/19 06:13:36;;;;;;;25.15;18.13;;;7.10;99.90;;;;;;4972429;28;20424;-69
2021/04/19 06:16:05;;;;;;;26.33;17.50;;;7.20;99.90;;;;;;4979190;28;20504;-69
2021/04/19 06:18:34;;;;;;;24.23;18.47;;;7.40;99.90;;;;;;4978361;28;20423;-69
2021/04/19 06:21:05;;;;;;;27.70;18.00;;;7.40;99.90;;;;;;4978185;28;20423;-69
2021/04/19 06:23:35;;;;;;;24.75;18.00;;;7.60;99.90;;;;;;4979804;28;20487;-68
2021/04/19 06:26:06;;;;;;;28.83;18.37;;;7.80;99.90;;;;;;4978551;28;20507;-69
2021/04/19 06:28:34;;;;;;;27.95;19.40;;;7.90;99.90;;;;;;4977227;28;20428;-68
2021/04/19 06:31:24;;;;;;;26.85;19.20;;;7.70;99.90;;;;;;4977084;28;20430;-68
2021/04/19 06:34:05;;;;;;;26.55;18.60;;;7.70;99.90;;;;;;4975718;28;20907;-69
2021/04/19 06:36:35;;;;;;;26.20;19.20;;;7.90;99.90;;;;;;4977059;28;20436;-69
2021/04/19 06:39:06;;;;;;;23.42;17.55;;;8.30;99.90;;;;;;4976400;28;20486;-69
2021/04/19 06:41:34;;;;;;;20.77;16.42;;;8.70;99.90;;;;;;4978253;28;20918;-70
2021/04/19 06:44:02;;;;;;;22.13;17.55;;;8.90;99.90;;;;;;4976310;28;20424;-67
2021/04/19 06:46:33;;;;;;;23.97;18.10;;;8.80;99.90;;;;;;4978190;28;20877;-67
2021/04/19 06:49:01;;;;;;;23.48;17.30;;;8.80;99.90;;;;;;4977238;28;20432;-67
2021/04/19 06:51:30;;;;;;;28.27;19.38;;;9.00;99.90;;;;;;4977244;28;20962;-68
2021/04/19 06:53:59;;;;;;;24.55;18.50;;;8.70;99.90;;;;;;4977340;28;20423;-67
2021/04/19 06:56:34;;;;;;;25.35;18.83;;;8.60;99.90;;;;;;4976895;28;20915;-67
2021/04/19 06:59:02;;;;;;;23.75;18.80;;;8.50;99.90;;;;;;4976555;28;20434;-68
2021/04/19 07:01:31;;;;;;;24.55;18.38;;;8.50;99.90;;;;;;4977710;28;20503;-72
2021/04/19 07:04:02;;;;;;;27.73;19.45;;;8.40;99.90;;;;;;4960512;28;20967;-69
2021/04/19 07:06:34;;;;;;;22.15;17.52;;;8.50;99.90;;;;;;4977908;28;20780;-69
2021/04/19 07:09:05;;;;;;;23.58;17.33;;;8.70;99.90;;;;;;4978109;28;20431;-69
2021/04/19 07:11:39;;;;;;;25.57;19.17;;;8.80;99.90;;;;;;4976956;28;20466;-69
2021/04/19 07:14:08;;;;;;;27.07;18.90;;;8.80;99.90;;;;;;4976913;28;20404;-69
2021/04/19 07:16:36;;;;;;;25.67;18.70;;;8.80;99.90;;;;;;4977924;28;20414;-67
2021/04/19 07:19:06;;;;;;;27.25;19.27;;;8.80;99.90;;;;;;4977973;28;20408;-68
2021/04/19 07:21:34;;;;;;;24.97;17.60;;;9.10;99.90;;;;;;4978078;28;20412;-68
2021/04/19 07:24:03;;;;;;;24.95;19.77;;;9.00;99.90;;;;;;4978221;28;20419;-68
2021/04/19 07:26:32;;;;;;;28.77;19.45;;;9.30;99.90;;;;;;4978057;28;20420;-68
2021/04/19 07:29:01;;;;;;;26.92;20.08;;;9.10;99.90;;;;;;4978266;28;20494;-69
2021/04/19 07:31:45;;;;;;;27.52;19.60;;;8.80;99.90;;;;;;4976731;28;20447;-68
2021/04/19 07:34:17;;;;;;;30.25;21.50;;;8.80;99.90;;;;;;4978436;28;20416;-68
2021/04/19 07:36:53;;;;;;;26.75;18.95;;;9.40;99.90;;;;;;4980940;28;20416;-69
2021/04/19 07:39:22;;;;;;;26.58;19.45;;;9.90;99.90;;;;;;4986572;28;20503;-69
2021/04/19 07:41:53;;;;;;;24.42;19.05;;;10.00;99.90;;;;;;4986539;28;20440;-69
2021/04/19 07:44:41;;;;;;;31.00;22.00;;;10.30;99.90;;;;;;4989830;28;20422;-68
2021/04/19 07:47:30;;;;;;;32.55;23.73;;;10.20;99.90;;;;;;4985232;28;20443;-68
2021/04/19 07:50:10;;;;;;;31.95;24.02;;;10.20;99.90;;;;;;4972898;28;20428;-68
2021/04/19 07:52:56;;;;;;;27.90;22.00;;;9.90;99.90;;;;;;4986513;28;20427;-68
2021/04/19 07:55:25;;;;;;;29.80;22.13;;;9.80;99.90;;;;;;4979905;28;20470;-69
2021/04/19 07:58:04;;;;;;;28.90;23.30;;;9.30;99.90;;;;;;4977295;28;20498;-69
2021/04/19 08:00:35;;;;;;;30.40;23.88;;;8.80;99.90;;;;;;4978210;28;20483;-68
2021/04/19 08:03:04;;;;;;;32.42;23.20;;;9.00;99.90;;;;;;4978037;28;20483;-70
2021/04/19 08:05:38;;;;;;;29.70;22.83;;;9.20;99.90;;;;;;4976930;28;20424;-69
2021/04/19 08:08:07;;;;;;;32.53;24.13;;;9.20;99.90;;;;;;4977951;28;20408;-69
2021/04/19 08:10:37;;;;;;;33.70;22.42;;;9.20;99.90;;;;;;4989116;28;20434;-69
2021/04/19 08:13:07;;;;;;;35.50;24.00;;;9.10;99.90;;;;;;4992983;28;20975;-69
2021/04/19 08:15:37;;;;;;;29.42;22.75;;;9.10;99.90;;;;;;4993694;28;20456;-69
2021/04/19 08:18:11;;;;;;;31.42;22.67;;;9.20;99.90;;;;;;4990933;28;20448;-69
2021/04/19 08:20:48;;;;;;;30.02;23.83;;;9.50;99.90;;;;;;4974969;28;20621;-69
2021/04/19 08:23:16;;;;;;;29.50;22.98;;;9.50;99.90;;;;;;4990352;28;20401;-68
2021/04/19 08:26:09;;;;;;;32.63;23.48;;;9.40;99.90;;;;;;4991352;28;20823;-69
2021/04/19 08:28:45;;;;;;;30.87;23.13;;;9.40;99.90;;;;;;4992029;28;20427;-68
2021/04/19 08:31:15;;;;;;;30.20;22.65;;;9.30;99.90;;;;;;4992382;28;20478;-69
2021/04/19 08:33:44;;;;;;;31.58;23.17;;;9.40;99.90;;;;;;4992137;28;20484;-69
2021/04/19 08:36:15;;;;;;;33.58;23.80;;;9.60;99.90;;;;;;4994134;28;20459;-69
2021/04/19 08:38:43;;;;;;;32.38;22.65;;;9.90;99.90;;;;;;4993313;28;20417;-68
2021/04/19 08:41:11;;;;;;;32.00;24.48;;;10.10;99.90;;;;;;4993278;28;20424;-68
2021/04/19 08:43:42;;;;;;;32.58;23.58;;;10.00;99.90;;;;;;4994203;28;20423;-68
2021/04/19 08:46:17;;;;;;;30.95;22.85;;;10.20;99.90;;;;;;4995208;28;20419;-68
2021/04/19 08:48:45;;;;;;;27.08;21.30;;;10.20;99.90;;;;;;4994751;28;20480;-68
2021/04/19 08:51:12;;;;;;;28.13;22.98;;;10.50;99.90;;;;;;4993260;28;20424;-68
2021/04/19 08:53:40;;;;;;;27.90;21.85;;;10.30;99.90;;;;;;4994281;28;20424;-68
2021/04/19 08:56:09;;;;;;;26.30;20.63;;;10.10;99.90;;;;;;4994898;28;20407;-68
2021/04/19 08:58:37;;;;;;;28.38;22.70;;;10.50;99.90;;;;;;4994379;28;20427;-68
2021/04/19 09:01:07;;;;;;;29.30;22.85;;;10.60;99.90;;;;;;4995449;28;20408;-68
2021/04/19 09:03:36;;;;;;;31.27;23.25;;;10.20;99.90;;;;;;4994307;28;20411;-68
2021/04/19 09:06:15;;;;;;;30.05;23.30;;;10.30;99.90;;;;;;4990659;28;20424;-68
2021/04/19 09:08:43;;;;;;;28.70;23.50;;;10.50;99.90;;;;;;4979379;28;20416;-70
2021/04/19 09:11:35;;;;;;;32.33;24.58;;;10.30;99.90;;;;;;4979781;28;20427;-67
2021/04/19 09:14:04;;;;;;;32.67;23.77;;;10.10;99.90;;;;;;4976597;28;20459;-68
2021/04/19 09:16:37;;;;;;;26.13;22.45;;;10.70;99.90;;;;;;4975839;28;20420;-71
2021/04/19 09:19:06;;;;;;;28.73;22.83;;;10.90;99.90;;;;;;4974960;28;20511;-69
2021/04/19 09:21:47;;;;;;;29.60;22.70;;;11.00;99.90;;;;;;4974043;28;20506;-69
2021/04/19 09:24:17;;;;;;;29.53;21.97;;;11.30;99.90;;;;;;4975131;28;20830;-67
2021/04/19 09:26:54;;;;;;;29.50;21.50;;;11.60;99.90;;;;;;4975538;28;20431;-69
2021/04/19 09:29:47;;;;;;;29.63;21.95;;;12.40;99.90;;;;;;4975514;28;20419;-68
2021/04/19 09:32:25;;;;;;;25.40;21.10;;;13.00;99.90;;;;;;4978263;28;20418;-68
2021/04/19 09:35:04;;;;;;;31.15;23.15;;;12.90;99.90;;;;;;4977800;28;20442;-68
2021/04/19 09:37:54;;;;;;;28.33;22.17;;;12.40;99.90;;;;;;4979902;28;20419;-69
2021/04/19 09:40:24;;;;;;;24.48;21.38;;;12.80;99.90;;;;;;4977691;28;20439;-69
2021/04/19 09:43:09;;;;;;;26.35;22.00;;;13.00;99.90;;;;;;4962443;28;20420;-71
2021/04/19 09:45:53;;;;;;;27.35;21.00;;;13.50;99.90;;;;;;4977330;28;20427;-68
2021/04/19 09:48:45;;;;;;;24.55;20.15;;;14.30;99.90;;;;;;4977953;28;20824;-68
2021/04/19 09:51:39;;;;;;;24.85;19.80;;;14.70;99.90;;;;;;4977984;28;20908;-68
2021/04/19 09:54:09;;;;;;;25.23;20.98;;;16.80;96.40;;;;;;4960933;28;20507;-68
2021/04/19 09:56:40;;;;;;;22.70;19.13;;;14.00;96.90;;;;;;4978044;28;20431;-68
2021/04/19 09:59:10;;;;;;;24.20;20.17;;;14.30;99.90;;;;;;4961737;28;20468;-69
2021/04/19 10:01:38;;;;;;;24.33;19.50;;;15.20;98.70;;;;;;4977885;28;20419;-68
2021/04/19 10:04:06;;;;;;;21.20;17.40;;;16.30;95.90;;;;;;4980588;28;20423;-70
2021/04/19 10:06:43;;;;;;;19.98;16.60;;;15.60;94.50;;;;;;4978735;28;20504;-67
2021/04/19 10:09:12;;;;;;;21.05;17.85;;;17.50;92.30;;;;;;4979785;28;20424;-67
2021/04/19 10:11:45;;;;;;;23.15;19.20;;;16.90;91.20;;;;;;4979775;28;20819;-68
2021/04/19 10:14:16;;;;;;;20.07;17.83;;;13.90;95.60;;;;;;4979111;28;20815;-69
2021/04/19 10:16:45;;;;;;;22.73;17.85;;;14.90;96.30;;;;;;4978485;28;20412;-69
2021/04/19 10:19:22;;;;;;;22.55;18.15;;;14.30;97.00;;;;;;4976854;28;20926;-69
2021/04/19 10:21:59;;;;;;;22.42;18.65;;;13.70;99.20;;;;;;4977953;28;20443;-68
2021/04/19 10:24:28;;;;;;;21.75;18.13;;;13.70;99.90;;;;;;4976439;28;20404;-68
2021/04/19 10:26:55;;;;;;;24.55;18.70;;;13.60;99.90;;;;;;4960312;28;20416;-69
2021/04/19 10:29:27;;;;;;;24.52;19.77;;;13.50;99.90;;;;;;4978400;28;20439;-68
2021/04/19 10:31:55;;;;;;;23.45;19.23;;;12.90;99.90;;;;;;4978072;28;20416;-68
2021/04/19 10:34:26;;;;;;;23.45;19.13;;;12.60;99.90;;;;;;4977893;28;20448;-68
2021/04/19 10:36:55;;;;;;;24.85;20.13;;;12.30;99.90;;;;;;4977337;28;20741;-68
2021/04/19 10:39:26;;;;;;;26.10;20.27;;;12.10;99.90;;;;;;4992618;28;20424;-68
2021/04/19 10:41:57;;;;;;;27.57;20.60;;;11.80;99.90;;;;;;4975479;28;20968;-67
2021/04/19 10:44:35;;;;;;;23.17;18.07;;;11.40;99.90;;;;;;4976847;28;20398;-68
2021/04/19 10:47:04;;;;;;;24.52;17.88;;;11.40;99.90;;;;;;4976581;28;20915;-68
2021/04/19 10:49:31;;;;;;;28.55;20.05;;;11.20;99.90;;;;;;4977700;28;20552;-68
2021/04/19 10:52:01;;;;;;;27.40;20.60;;;10.80;99.90;;;;;;4959713;28;20428;-69
2021/04/19 10:54:54;;;;;;;27.50;20.80;;;10.50;99.90;;;;;;4978034;28;20412;-68
2021/04/19 10:57:24;;;;;;;29.40;21.48;;;10.40;99.90;;;;;;4976774;28;20426;-69
2021/04/19 10:59:52;;;;;;;31.48;22.55;;;10.30;99.90;;;;;;4975824;28;20420;-69
2021/04/19 11:02:23;;;;;;;28.38;22.58;;;10.20;99.90;;;;;;4976936;28;20428;-68
2021/04/19 11:04:51;;;;;;;29.67;23.60;;;10.10;99.90;;;;;;4976657;28;20904;-69
2021/04/19 11:07:26;;;;;;;35.85;24.23;;;10.00;99.90;;;;;;4977299;28;20412;-72
2021/04/19 11:10:12;;;;;;;35.10;24.08;;;10.00;99.90;;;;;;4959270;28;20428;-69
2021/04/19 11:12:41;;;;;;;32.17;23.00;;;10.10;99.90;;;;;;4959632;28;20447;-68
2021/04/19 11:15:10;;;;;;;29.80;20.77;;;10.30;99.90;;;;;;4977123;28;20436;-68
2021/04/19 11:17:38;;;;;;;24.60;19.37;;;10.70;99.90;;;;;;4976272;28;20424;-68
2021/04/19 11:20:20;;;;;;;27.00;21.02;;;11.30;99.90;;;;;;4974958;28;20416;-69
2021/04/19 11:22:47;;;;;;;29.35;21.60;;;11.30;99.90;;;;;;4959004;28;20983;-71
2021/04/19 11:25:19;;;;;;;27.42;21.92;;;10.70;99.90;;;;;;4975257;28;20825;-69
2021/04/19 11:27:49;;;;;;;23.98;18.98;;;10.50;99.90;;;;;;4975685;28;20475;-69
2021/04/19 11:30:25;;;;;;;17.25;14.75;;;10.50;99.90;;;;;;4974448;28;20424;-69
2021/04/19 11:33:12;;;;;;;18.65;14.75;;;10.30;99.90;;;;;;4975836;28;20463;-69
2021/04/19 11:36:06;;;;;;;18.30;15.40;;;10.40;99.90;;;;;;4976885;28;20856;-69
2021/04/19 11:38:36;;;;;;;19.83;16.77;;;10.40;99.90;;;;;;4975968;28;20454;-70
2021/04/19 11:41:07;;;;;;;20.55;17.45;;;10.30;99.90;;;;;;4976012;28;20923;-70
2021/04/19 11:43:36;;;;;;;19.58;17.05;;;10.60;99.90;;;;;;4976543;28;20507;-69
2021/04/19 11:46:07;;;;;;;23.33;17.75;;;10.90;99.90;;;;;;4975363;28;20474;-68
2021/04/19 11:48:37;;;;;;;20.25;16.45;;;10.80;99.90;;;;;;4975034;28;20471;-68
2021/04/19 11:51:06;;;;;;;19.15;15.55;;;10.70;99.90;;;;;;4974968;28;20788;-69
2021/04/19 11:53:39;;;;;;;22.10;16.67;;;10.80;99.90;;;;;;4958743;28;20451;-68
2021/04/19 11:56:11;;;;;;;19.05;15.07;;;10.80;99.90;;;;;;4974484;28;20420;-69
2021/04/19 11:58:41;;;;;;;18.73;15.17;;;10.20;99.90;;;;;;4975056;28;20536;-69
2021/04/19 12:01:12;;;;;;;18.75;15.38;;;10.50;99.90;;;;;;4974815;28;20416;-69
2021/04/19 12:03:41;;;;;;;16.75;13.20;;;10.50;99.90;;;;;;4975599;28;20423;-69
2021/04/19 12:06:12;;;;;;;17.13;13.82;;;10.80;99.90;;;;;;4975555;28;20464;-68
2021/04/19 12:08:41;;;;;;;14.67;11.60;;;10.90;99.90;;;;;;4975553;28;20417;-69
2021/04/19 12:11:12;;;;;;;13.57;11.75;;;10.90;99.90;;;;;;4958543;28;20520;-69
2021/04/19 12:14:05;;;;;;;11.90;9.10;;;11.40;99.90;;;;;;4974799;28;20416;-69
2021/04/19 12:16:33;;;;;;;11.80;8.35;;;11.90;99.90;;;;;;4973585;28;20463;-70
2021/04/19 12:19:02;;;;;;;9.70;8.68;;;12.50;99.90;;;;;;4977173;28;20416;-69
2021/04/19 12:21:29;;;;;;;9.25;7.75;;;12.40;99.90;;;;;;4975766;28;20423;-71
2021/04/19 12:24:05;;;;;;;10.57;6.95;;;13.50;99.90;;;;;;4975120;28;20939;-69
2021/04/19 12:26:34;;;;;;;7.47;6.45;;;14.10;99.90;;;;;;4975266;28;20408;-69
2021/04/19 12:29:12;;;;;;;9.70;7.47;;;14.10;99.90;;;;;;4976120;28;20462;-70
2021/04/19 12:31:40;;;;;;;7.18;5.85;;;14.40;99.90;;;;;;4974905;28;20964;-69
2021/04/19 12:34:09;;;;;;;5.72;4.70;;;14.20;99.90;;;;;;4974695;28;20745;-68
2021/04/19 12:36:36;;;;;;;5.60;4.70;;;14.20;99.90;;;;;;4973960;28;20896;-69
2021/04/19 12:39:06;;;;;;;4.63;4.10;;;14.50;99.90;;;;;;4958416;28;20427;-67
2021/04/19 12:41:35;;;;;;;6.05;5.00;;;15.20;99.90;;;;;;4976893;28;20412;-71
2021/04/19 12:44:03;;;;;;;7.13;5.20;;;15.40;98.40;;;;;;4976213;28;20423;-68
2021/04/19 12:46:55;;;;;;;6.07;5.32;;;14.60;99.80;;;;;;4973223;28;20420;-69
2021/04/19 12:49:23;;;;;;;5.20;4.70;;;14.60;99.90;;;;;;4974675;28;20737;-68
2021/04/19 12:51:51;;;;;;;4.90;4.40;;;14.40;99.70;;;;;;4975344;28;20430;-73
2021/04/19 12:54:21;;;;;;;5.68;5.00;;;14.30;98.30;;;;;;4975109;28;20733;-69
2021/04/19 12:57:14;;;;;;;5.93;5.33;;;14.30;99.30;;;;;;4975354;28;20812;-69
2021/04/19 12:59:42;;;;;;;6.60;5.95;;;14.50;99.00;;;;;;4975696;28;20510;-69
2021/04/19 13:02:09;;;;;;;8.50;7.60;;;13.80;99.90;;;;;;4974563;28;20478;-69
2021/04/19 13:04:38;;;;;;;7.97;6.93;;;13.90;99.90;;;;;;4975565;28;20404;-69
2021/04/19 13:07:05;;;;;;;7.03;6.32;;;14.30;99.90;;;;;;4961981;28;20427;-69
2021/04/19 13:09:34;;;;;;;7.43;6.57;;;14.40;99.90;;;;;;4978223;28;20788;-69
2021/04/19 13:12:04;;;;;;;7.75;6.80;;;14.50;99.90;;;;;;4979135;28;20508;-69